Terminal Aerodrome Forecast
Issued by NWS Tallahassee, FL

Home | Current Version | Previous Version | Text Only | Print | Product List | Glossary On
Versions: 1 2 3 4 5 6 7 8 9 10 11 12 13 14 15
000
FTUS42 KTAE 230532 CCA
TAFTLH
TAF COR
KTLH 230532Z 2306/2406 21003KT P6SM SCT010
      TEMPO 2309/2313 00000KT 3SM BR BKN005
     FM231600 22010G20KT P6SM SCT025 BKN040
     FM232100 24010G20KT 3SM TSRA BKN025CB
     FM240000 28007KT P6SM BKN040=

USA.gov is the U.S. government's official web portal to all federal, state and local government web resources and services.